createdAt,value
2023-02-11T00:01:43.173Z,4.30
2023-02-11T00:04:11.205Z,3.35
2023-02-11T00:06:39.482Z,3.52
2023-02-11T00:09:08.032Z,3.85
2023-02-11T00:11:36.087Z,3.58
2023-02-11T00:14:08.252Z,3.20
2023-02-11T00:16:35.933Z,3.75
2023-02-11T00:19:07.397Z,3.62
2023-02-11T00:21:35.951Z,3.52
2023-02-11T00:24:04.511Z,3.22
2023-02-11T00:26:34.646Z,3.40
2023-02-11T00:29:03.587Z,3.15
2023-02-11T00:31:34.509Z,3.75
2023-02-11T00:34:02.607Z,3.75
2023-02-11T00:36:45.702Z,3.50
2023-02-11T00:39:15.687Z,3.10
2023-02-11T00:41:43.699Z,3.25
2023-02-11T00:44:13.523Z,3.52
2023-02-11T00:46:41.310Z,3.60
2023-02-11T00:49:11.418Z,3.92
2023-02-11T00:51:50.297Z,4.28
2023-02-11T00:54:17.858Z,3.60
2023-02-11T00:56:47.266Z,4.30
2023-02-11T00:59:14.761Z,4.47
2023-02-11T01:01:44.780Z,4.10
2023-02-11T01:07:34.834Z,4.35
2023-02-11T01:10:03.737Z,4.92
2023-02-11T01:12:33.483Z,4.70
2023-02-11T01:15:01.134Z,5.10
2023-02-11T01:17:28.979Z,4.80
2023-02-11T01:19:56.576Z,7.08
2023-02-11T01:22:24.452Z,6.05
2023-02-11T01:24:56.134Z,5.67
2023-02-11T01:27:23.856Z,6.25
2023-02-11T01:29:51.915Z,5.55
2023-02-11T01:32:21.419Z,5.60
2023-02-11T01:34:56.407Z,6.60
2023-02-11T01:37:28.542Z,7.00
2023-02-11T01:39:56.551Z,6.33
2023-02-11T01:42:24.543Z,7.22
2023-02-11T01:44:54.890Z,7.12
2023-02-11T01:47:26.467Z,8.73
2023-02-11T01:50:00.872Z,7.40
2023-02-11T01:52:46.542Z,8.23
2023-02-11T01:55:35.490Z,6.25
2023-02-11T01:58:05.679Z,6.78
2023-02-11T02:00:39.670Z,6.92
2023-02-11T02:03:14.200Z,7.00
2023-02-11T02:05:57.873Z,5.65
2023-02-11T02:08:32.675Z,5.47
2023-02-11T02:11:11.901Z,5.92
2023-02-11T02:13:39.240Z,6.03
2023-02-11T02:16:24.534Z,5.67
2023-02-11T02:19:02.554Z,5.53
2023-02-11T02:21:54.155Z,5.95
2023-02-11T02:24:25.564Z,6.17
2023-02-11T02:27:06.411Z,5.42
2023-02-11T02:29:55.567Z,6.55
2023-02-11T02:32:50.264Z,6.60
2023-02-11T02:35:34.189Z,7.05
2023-02-11T02:38:09.231Z,6.47
2023-02-11T02:40:59.836Z,6.25
2023-02-11T02:43:29.525Z,6.30
2023-02-11T02:46:01.032Z,5.20
2023-02-11T02:48:31.860Z,4.83
2023-02-11T02:51:03.548Z,4.35
2023-02-11T02:53:50.110Z,4.67
2023-02-11T02:56:21.579Z,4.62
2023-02-11T02:58:55.484Z,5.35
2023-02-11T03:01:47.931Z,5.78
2023-02-11T03:04:34.272Z,5.12
2023-02-11T03:07:14.657Z,5.05
2023-02-11T03:09:46.476Z,5.83
2023-02-11T03:12:16.656Z,4.92
2023-02-11T03:14:45.734Z,5.25
2023-02-11T03:17:16.158Z,4.75
2023-02-11T03:19:46.558Z,4.75
2023-02-11T03:22:30.463Z,5.08
2023-02-11T03:24:58.531Z,5.35
2023-02-11T03:27:39.154Z,5.72
2023-02-11T03:30:29.072Z,5.10
2023-02-11T03:33:00.737Z,5.22
2023-02-11T03:38:21.014Z,6.05
2023-02-11T03:41:10.519Z,5.75
2023-02-11T03:43:44.697Z,5.22
2023-02-11T03:46:14.643Z,5.42
2023-02-11T03:48:51.929Z,4.87
2023-02-11T03:51:22.535Z,5.55
2023-02-11T03:53:54.758Z,5.42
2023-02-11T03:56:32.112Z,5.15
2023-02-11T03:59:01.188Z,5.45
2023-02-11T04:01:29.217Z,6.00
2023-02-11T04:03:57.262Z,5.35
2023-02-11T04:06:42.282Z,5.28
2023-02-11T04:09:11.137Z,5.10
2023-02-11T04:11:58.324Z,5.42
2023-02-11T04:14:25.846Z,5.60
2023-02-11T04:16:54.243Z,6.15
2023-02-11T04:19:22.444Z,5.65
2023-02-11T04:21:50.060Z,5.28
2023-02-11T04:24:17.845Z,5.58
2023-02-11T04:26:59.916Z,5.47
2023-02-11T04:29:28.627Z,5.12
2023-02-11T04:31:56.234Z,5.03
2023-02-11T04:34:24.788Z,5.87
2023-02-11T04:36:52.528Z,5.08
2023-02-11T04:39:26.633Z,14.78
2023-02-11T04:41:54.542Z,5.97
2023-02-11T04:44:25.858Z,6.33
2023-02-11T04:46:54.236Z,5.45
2023-02-11T04:49:22.316Z,4.85
2023-02-11T04:51:50.350Z,6.33
2023-02-11T04:54:18.635Z,5.58
2023-02-11T04:56:46.420Z,5.33
2023-02-11T04:59:14.195Z,5.05
2023-02-11T05:01:42.742Z,5.70
2023-02-11T05:04:10.739Z,5.00
2023-02-11T05:06:39.821Z,5.10
2023-02-11T05:09:08.394Z,5.47
2023-02-11T05:11:37.205Z,6.72
2023-02-11T05:14:05.337Z,5.65
2023-02-11T05:16:33.903Z,4.87
2023-02-11T05:22:03.894Z,5.30
2023-02-11T05:24:35.763Z,5.10
2023-02-11T05:27:03.913Z,5.50
2023-02-11T05:29:31.743Z,5.17
2023-02-11T05:32:00.454Z,5.05
2023-02-11T05:34:28.821Z,4.92
2023-02-11T05:36:56.662Z,4.95
2023-02-11T05:39:24.549Z,4.85
2023-02-11T05:41:52.286Z,5.67
2023-02-11T05:44:19.780Z,5.35
2023-02-11T05:46:47.441Z,5.37
2023-02-11T05:49:15.466Z,5.37
2023-02-11T05:51:44.370Z,6.00
2023-02-11T05:54:12.001Z,5.62
2023-02-11T05:56:40.063Z,5.62
2023-02-11T05:59:07.542Z,5.97
2023-02-11T06:01:36.170Z,6.62
2023-02-11T06:04:04.227Z,5.85
2023-02-11T06:06:51.579Z,5.67
2023-02-11T06:09:19.512Z,5.92
2023-02-11T06:11:47.394Z,5.90
2023-02-11T06:14:14.951Z,6.08
2023-02-11T06:16:45.880Z,5.78
2023-02-11T06:19:14.017Z,21.80
2023-02-11T06:21:44.171Z,7.00
2023-02-11T06:24:11.750Z,5.53
2023-02-11T06:26:39.777Z,6.45
2023-02-11T06:29:07.401Z,6.72
2023-02-11T06:31:35.247Z,6.30
2023-02-11T06:34:03.212Z,5.97
2023-02-11T06:36:31.010Z,6.15
2023-02-11T06:38:58.881Z,6.65
2023-02-11T06:41:26.965Z,6.12
2023-02-11T06:43:55.210Z,6.15
2023-02-11T06:46:24.487Z,6.10
2023-02-11T06:48:52.792Z,6.78
2023-02-11T06:51:20.416Z,7.53
2023-02-11T06:53:48.887Z,7.20
2023-02-11T06:56:20.022Z,8.25
2023-02-11T06:58:48.028Z,10.05
2023-02-11T07:01:17.679Z,7.92
2023-02-11T07:03:46.627Z,8.05
2023-02-11T07:06:18.158Z,7.75
2023-02-11T07:08:46.557Z,8.70
2023-02-11T07:11:21.069Z,8.85
2023-02-11T07:13:48.746Z,8.35
2023-02-11T07:16:18.553Z,8.53
2023-02-11T07:21:26.718Z,9.25
2023-02-11T07:23:54.823Z,10.03
2023-02-11T07:26:25.045Z,8.98
2023-02-11T07:28:53.974Z,9.15
2023-02-11T07:31:25.546Z,9.33
2023-02-11T07:33:57.225Z,9.50
2023-02-11T07:36:25.236Z,9.68
2023-02-11T07:38:53.453Z,9.00
2023-02-11T07:41:23.513Z,9.33
2023-02-11T07:43:52.154Z,9.33
2023-02-11T07:46:30.372Z,9.60
2023-02-11T07:48:58.169Z,9.05
2023-02-11T07:51:28.599Z,12.95
2023-02-11T07:53:59.023Z,14.25
2023-02-11T07:56:28.375Z,16.75
2023-02-11T07:58:58.509Z,16.00
2023-02-11T08:01:29.440Z,17.00
2023-02-11T08:03:59.146Z,22.37
2023-02-11T08:06:32.233Z,35.95
2023-02-11T08:09:06.515Z,16.70
2023-02-11T08:11:34.617Z,13.98
2023-02-11T08:14:02.696Z,12.85
2023-02-11T08:16:33.044Z,11.43
2023-02-11T08:19:03.696Z,10.25
2023-02-11T08:21:45.452Z,9.43
2023-02-11T08:24:13.386Z,10.98
2023-02-11T08:26:42.257Z,9.60
2023-02-11T08:29:35.289Z,12.07
2023-02-11T08:32:03.765Z,10.75
2023-02-11T08:34:31.559Z,10.82
2023-02-11T08:36:59.652Z,10.72
2023-02-11T08:39:31.022Z,11.08
2023-02-11T08:41:59.831Z,9.78
2023-02-11T08:44:28.092Z,10.15
2023-02-11T08:46:55.621Z,9.15
2023-02-11T08:49:23.501Z,9.90
2023-02-11T08:51:59.753Z,9.65
2023-02-11T08:54:27.521Z,10.58
2023-02-11T08:56:55.224Z,10.90
2023-02-11T08:59:23.133Z,11.60
2023-02-11T09:01:51.769Z,11.30
2023-02-11T09:04:20.027Z,12.75
2023-02-11T09:06:47.960Z,11.20
2023-02-11T09:09:16.416Z,12.15
2023-02-11T09:11:45.451Z,12.78
2023-02-11T09:14:19.883Z,18.48
2023-02-11T09:16:48.474Z,14.60
2023-02-11T09:19:16.550Z,13.45
2023-02-11T09:21:44.911Z,13.38
2023-02-11T09:24:12.649Z,13.78
2023-02-11T09:26:43.692Z,15.63
2023-02-11T09:29:15.931Z,14.50
2023-02-11T09:31:45.856Z,15.43
2023-02-11T09:34:13.890Z,17.17
2023-02-11T09:36:42.336Z,20.10
2023-02-11T09:39:41.189Z,20.17
2023-02-11T09:42:33.841Z,20.12
2023-02-11T09:45:02.289Z,20.77
2023-02-11T09:47:36.973Z,25.30
2023-02-11T09:50:17.296Z,30.60
2023-02-11T09:53:00.914Z,25.48
2023-02-11T09:55:50.142Z,23.47
2023-02-11T09:58:22.132Z,24.40
2023-02-11T10:01:29.286Z,23.85
2023-02-11T10:04:09.090Z,24.45
2023-02-11T10:06:43.477Z,23.92
2023-02-11T10:09:27.497Z,23.85
2023-02-11T10:12:11.224Z,22.90
2023-02-11T10:18:41.774Z,23.38
2023-02-11T10:21:21.794Z,21.95
2023-02-11T10:23:58.891Z,23.45
2023-02-11T10:26:30.351Z,24.57
2023-02-11T10:33:09.081Z,25.92
2023-02-11T10:35:37.644Z,27.30
2023-02-11T10:38:05.644Z,29.82
2023-02-11T10:40:37.708Z,29.05
2023-02-11T10:43:40.173Z,29.40
2023-02-11T10:46:20.953Z,29.15
2023-02-11T10:48:53.011Z,28.50
2023-02-11T10:51:26.072Z,28.17
2023-02-11T10:54:23.006Z,30.20
2023-02-11T10:56:53.922Z,28.52
2023-02-11T10:59:26.136Z,28.77
2023-02-11T11:02:07.567Z,29.40
2023-02-11T11:04:44.519Z,27.93
2023-02-11T11:07:22.483Z,28.85
2023-02-11T11:09:56.288Z,29.02
2023-02-11T11:12:36.824Z,31.00
2023-02-11T11:15:14.257Z,28.02
2023-02-11T11:17:42.331Z,27.65
2023-02-11T11:20:28.829Z,27.50
2023-02-11T11:23:19.668Z,26.50
2023-02-11T11:26:03.953Z,26.80
2023-02-11T11:28:37.056Z,27.43
2023-02-11T11:31:06.773Z,25.80
2023-02-11T11:33:35.680Z,27.30
2023-02-11T11:36:25.208Z,27.65
2023-02-11T11:38:58.819Z,25.95
2023-02-11T11:41:33.084Z,27.93
2023-02-11T11:44:25.179Z,28.98
2023-02-11T11:47:15.209Z,26.90
2023-02-11T11:49:52.868Z,27.52
2023-02-11T11:52:36.810Z,31.40
2023-02-11T11:55:07.980Z,28.62
2023-02-11T11:57:38.246Z,27.27
2023-02-11T12:00:09.064Z,26.80
2023-02-11T12:03:00.718Z,26.10
2023-02-11T12:05:35.834Z,26.90
2023-02-11T12:10:51.950Z,24.82
2023-02-11T12:13:26.923Z,25.05
2023-02-11T12:19:05.608Z,24.25
2023-02-11T12:22:12.711Z,24.45
2023-02-11T12:25:16.491Z,24.23
2023-02-11T12:28:06.758Z,24.50
2023-02-11T12:30:56.776Z,22.70
2023-02-11T12:33:47.049Z,23.25
2023-02-11T12:36:28.256Z,25.57
2023-02-11T12:39:21.376Z,22.93
2023-02-11T12:42:44.396Z,23.05
2023-02-11T12:45:34.562Z,25.43
2023-02-11T12:48:10.284Z,21.97
2023-02-11T12:50:57.398Z,21.23
2023-02-11T12:53:29.075Z,19.57
2023-02-11T12:56:03.433Z,20.37
2023-02-11T12:58:44.525Z,20.37
2023-02-11T13:01:11.388Z,20.88
2023-02-11T13:03:48.759Z,20.20
2023-02-11T13:06:20.738Z,21.97
2023-02-11T13:08:51.773Z,24.87
2023-02-11T13:11:25.935Z,23.77
2023-02-11T13:14:00.192Z,25.52
2023-02-11T13:16:43.090Z,26.95
2023-02-11T13:19:23.354Z,26.12
2023-02-11T13:22:13.122Z,26.50
2023-02-11T13:24:49.934Z,27.15
2023-02-11T13:27:39.487Z,26.85
2023-02-11T13:30:21.411Z,26.27
2023-02-11T13:33:00.668Z,25.02
2023-02-11T13:35:39.551Z,26.87
2023-02-11T13:38:20.326Z,26.57
2023-02-11T13:41:01.174Z,25.92
2023-02-11T13:43:31.027Z,26.77
2023-02-11T13:46:05.335Z,26.25
2023-02-11T13:48:36.855Z,27.10
2023-02-11T13:51:14.224Z,25.75
2023-02-11T13:53:47.938Z,24.92
2023-02-11T13:56:31.513Z,24.60
2023-02-11T13:59:02.414Z,25.45
2023-02-11T14:01:53.851Z,25.60
2023-02-11T14:04:31.800Z,25.70
2023-02-11T14:07:44.823Z,24.63
2023-02-11T14:10:45.350Z,22.90
2023-02-11T14:13:31.699Z,24.15
2023-02-11T14:16:12.069Z,24.18
2023-02-11T14:18:49.545Z,22.48
2023-02-11T14:21:27.436Z,20.43
2023-02-11T14:24:05.359Z,23.18
2023-02-11T14:26:53.860Z,25.45
2023-02-11T14:29:36.020Z,25.15
2023-02-11T14:32:22.139Z,23.83
2023-02-11T14:35:11.840Z,23.70
2023-02-11T14:37:50.745Z,21.15
2023-02-11T14:40:28.526Z,22.82
2023-02-11T14:43:09.629Z,22.30
2023-02-11T14:45:38.376Z,22.45
2023-02-11T14:48:38.273Z,22.67
2023-02-11T14:51:12.559Z,22.55
2023-02-11T14:53:45.616Z,21.47
2023-02-11T14:56:24.988Z,21.93
2023-02-11T14:58:54.277Z,21.82
2023-02-11T15:01:30.418Z,20.90
2023-02-11T15:04:00.598Z,20.08
2023-02-11T15:06:43.490Z,19.73
2023-02-11T15:09:20.632Z,20.10
2023-02-11T15:11:49.959Z,21.27
2023-02-11T15:14:21.471Z,20.10
2023-02-11T15:16:50.519Z,20.60
2023-02-11T15:19:34.285Z,20.92
2023-02-11T15:22:01.208Z,20.88
2023-02-11T15:24:54.012Z,19.70
2023-02-11T15:27:23.152Z,19.30
2023-02-11T15:29:51.025Z,20.02
2023-02-11T15:32:25.148Z,20.43
2023-02-11T15:34:54.742Z,25.75
2023-02-11T15:37:25.587Z,23.35
2023-02-11T15:39:54.923Z,21.55
2023-02-11T15:42:28.590Z,19.27
2023-02-11T15:45:17.428Z,21.12
2023-02-11T15:48:19.168Z,19.52
2023-02-11T15:50:53.342Z,20.45
2023-02-11T15:53:34.126Z,19.25
2023-02-11T15:56:06.133Z,19.77
2023-02-11T15:58:39.368Z,20.55
2023-02-11T16:01:08.317Z,19.95
2023-02-11T16:03:37.450Z,21.33
2023-02-11T16:06:24.238Z,19.55
2023-02-11T16:09:13.668Z,23.00
2023-02-11T16:11:51.000Z,22.65
2023-02-11T16:17:20.981Z,24.18
2023-02-11T16:22:20.440Z,25.12
2023-02-11T16:24:51.718Z,25.82
2023-02-11T16:27:25.970Z,26.25
2023-02-11T16:29:53.886Z,26.02
2023-02-11T16:32:27.742Z,27.20
2023-02-11T16:34:58.443Z,28.85
2023-02-11T16:37:27.305Z,26.07
2023-02-11T16:39:55.958Z,28.85
2023-02-11T16:42:23.936Z,28.23
2023-02-11T16:44:51.323Z,27.95
2023-02-11T16:47:41.565Z,27.05
2023-02-11T16:50:12.163Z,28.07
2023-02-11T16:52:40.426Z,27.95
2023-02-11T16:55:10.246Z,27.25
2023-02-11T16:57:38.414Z,27.73
2023-02-11T17:00:08.876Z,25.20
2023-02-11T17:02:38.308Z,26.75
2023-02-11T17:05:09.178Z,27.02
2023-02-11T17:07:37.096Z,26.20
2023-02-11T17:10:09.835Z,25.72
2023-02-11T17:12:37.935Z,25.65
2023-02-11T17:15:07.672Z,26.97
2023-02-11T17:17:39.010Z,26.25
2023-02-11T17:20:12.717Z,27.02
2023-02-11T17:22:41.083Z,27.05
2023-02-11T17:25:10.351Z,28.02
2023-02-11T17:27:38.182Z,28.57
2023-02-11T17:30:28.327Z,30.15
2023-02-11T17:33:01.091Z,29.27
2023-02-11T17:35:55.579Z,28.60
2023-02-11T17:38:25.445Z,29.10
2023-02-11T17:41:00.914Z,28.83
2023-02-11T17:43:29.571Z,29.98
2023-02-11T17:45:58.500Z,30.75
2023-02-11T17:48:26.418Z,29.00
2023-02-11T17:50:54.402Z,29.57
2023-02-11T17:53:22.631Z,27.48
2023-02-11T17:55:50.541Z,29.65
2023-02-11T17:58:18.927Z,28.07
2023-02-11T18:00:46.796Z,29.40
2023-02-11T18:03:14.700Z,29.35
2023-02-11T18:05:42.397Z,29.87
2023-02-11T18:08:10.049Z,28.32
2023-02-11T18:10:38.825Z,29.77
2023-02-11T18:13:07.830Z,28.02
2023-02-11T18:15:37.458Z,29.42
2023-02-11T18:18:05.414Z,28.73
2023-02-11T18:20:33.426Z,30.20
2023-02-11T18:23:01.455Z,29.52
2023-02-11T18:25:33.342Z,29.67
2023-02-11T18:28:02.224Z,30.43
2023-02-11T18:30:33.731Z,28.75
2023-02-11T18:33:01.503Z,28.65
2023-02-11T18:35:29.819Z,31.33
2023-02-11T18:37:57.587Z,29.35
2023-02-11T18:40:25.621Z,29.90
2023-02-11T18:42:53.614Z,30.85
2023-02-11T18:45:21.640Z,29.30
2023-02-11T18:48:03.232Z,29.60
2023-02-11T18:50:30.852Z,28.75
2023-02-11T18:52:58.658Z,29.95
2023-02-11T18:55:26.746Z,28.92
2023-02-11T18:57:54.227Z,30.17
2023-02-11T19:00:23.303Z,30.02
2023-02-11T19:02:53.175Z,30.12
2023-02-11T19:05:22.855Z,29.57
2023-02-11T19:07:50.760Z,29.35
2023-02-11T19:10:19.002Z,29.70
2023-02-11T19:12:46.850Z,30.57
2023-02-11T19:15:15.349Z,30.48
2023-02-11T19:17:43.168Z,30.02
2023-02-11T19:20:14.091Z,30.77
2023-02-11T19:22:42.516Z,29.45
2023-02-11T19:25:11.521Z,31.45
2023-02-11T19:27:41.081Z,30.57
2023-02-11T19:30:10.997Z,29.18
2023-02-11T19:32:38.691Z,30.37
2023-02-11T19:35:07.096Z,30.02
2023-02-11T19:37:46.322Z,33.40
2023-02-11T19:40:15.793Z,30.05
2023-02-11T19:42:45.309Z,30.17
2023-02-11T19:45:20.410Z,30.23
2023-02-11T19:50:35.392Z,30.25
2023-02-11T19:53:21.371Z,32.67
2023-02-11T19:55:40.250Z,32.30
2023-02-11T19:58:08.061Z,31.30
2023-02-11T20:03:16.215Z,40.23
2023-02-11T20:05:45.434Z,44.10
2023-02-11T20:08:13.499Z,47.75
2023-02-11T20:10:41.170Z,47.55
2023-02-11T20:13:08.777Z,42.55
2023-02-11T20:15:37.179Z,38.75
2023-02-11T20:18:05.113Z,36.40
2023-02-11T20:20:32.980Z,33.88
2023-02-11T20:23:00.856Z,35.15
2023-02-11T20:25:32.423Z,33.73
2023-02-11T20:27:58.621Z,33.60
2023-02-11T20:30:26.245Z,35.45
2023-02-11T20:32:57.171Z,35.43
2023-02-11T20:35:25.881Z,32.67
2023-02-11T20:37:53.656Z,31.70
2023-02-11T20:40:21.218Z,30.57
2023-02-11T20:42:48.675Z,30.20
2023-02-11T20:45:16.434Z,29.72
2023-02-11T20:47:44.343Z,29.50
2023-02-11T20:50:12.213Z,30.35
2023-02-11T20:52:40.477Z,30.55
2023-02-11T20:55:27.849Z,29.67
2023-02-11T20:57:55.545Z,29.50
2023-02-11T21:00:23.215Z,31.42
2023-02-11T21:02:52.829Z,28.80
2023-02-11T21:05:20.578Z,30.15
2023-02-11T21:07:48.219Z,29.37
2023-02-11T21:10:16.387Z,29.87
2023-02-11T21:12:44.521Z,29.60
2023-02-11T21:15:14.065Z,28.80
2023-02-11T21:17:41.943Z,28.62
2023-02-11T21:20:10.530Z,29.30
2023-02-11T21:22:38.285Z,28.27
2023-02-11T21:25:06.687Z,29.55
2023-02-11T21:27:34.522Z,28.95
2023-02-11T21:30:22.224Z,28.35
2023-02-11T21:35:36.925Z,30.37
2023-02-11T21:38:05.345Z,28.98
2023-02-11T21:40:33.491Z,29.37
2023-02-11T21:43:01.546Z,30.55
2023-02-11T21:45:32.300Z,29.82
2023-02-11T21:47:59.721Z,29.18
2023-02-11T21:50:27.826Z,30.45
2023-02-11T21:52:55.550Z,31.25
2023-02-11T21:55:23.253Z,31.97
2023-02-11T21:57:51.123Z,35.90
2023-02-11T22:00:19.688Z,34.25
2023-02-11T22:02:49.727Z,35.60
2023-02-11T22:05:16.900Z,34.98
2023-02-11T22:07:44.542Z,33.88
2023-02-11T22:10:12.317Z,32.53
2023-02-11T22:12:40.486Z,31.48
2023-02-11T22:15:09.677Z,30.75
2023-02-11T22:17:37.520Z,29.57
2023-02-11T22:20:07.097Z,29.72
2023-02-11T22:22:35.624Z,28.10
2023-02-11T22:25:04.604Z,28.30
2023-02-11T22:27:36.193Z,27.05
2023-02-11T22:30:04.567Z,27.95
2023-02-11T22:32:32.541Z,30.43
2023-02-11T22:35:02.192Z,28.57
2023-02-11T22:37:30.934Z,27.90
2023-02-11T22:39:58.712Z,28.30
2023-02-11T22:42:26.535Z,27.58
2023-02-11T22:44:57.549Z,27.90
2023-02-11T22:47:24.949Z,27.37
2023-02-11T22:49:53.006Z,26.80
2023-02-11T22:52:22.018Z,27.90
2023-02-11T22:54:51.776Z,28.90
2023-02-11T22:57:20.503Z,32.15
2023-02-11T22:59:52.579Z,31.27
2023-02-11T23:02:20.631Z,32.33
2023-02-11T23:04:50.049Z,32.40
2023-02-11T23:07:18.516Z,31.77
2023-02-11T23:09:45.857Z,30.92
2023-02-11T23:12:14.863Z,31.10
2023-02-11T23:14:42.965Z,30.82
2023-02-11T23:17:10.863Z,32.40
2023-02-11T23:19:38.278Z,31.50
2023-02-11T23:22:06.374Z,29.67
2023-02-11T23:24:34.054Z,28.65
2023-02-11T23:27:01.683Z,30.48
2023-02-11T23:29:44.694Z,31.50
2023-02-11T23:32:12.533Z,30.85
2023-02-11T23:34:47.575Z,31.40
2023-02-11T23:37:15.497Z,28.83
2023-02-11T23:39:43.513Z,29.18
2023-02-11T23:42:12.671Z,29.70
2023-02-11T23:44:40.365Z,27.52
2023-02-11T23:47:08.143Z,28.90
2023-02-11T23:49:36.952Z,28.70
2023-02-11T23:52:04.869Z,30.27
2023-02-11T23:54:32.637Z,29.57
2023-02-11T23:57:00.431Z,29.63
2023-02-11T23:59:28.430Z,30.02
